createdAt,value
2022-08-07T00:02:41.084Z,102310.59
2022-08-07T00:04:52.875Z,102319.06
2022-08-07T00:07:19.430Z,102311.19
2022-08-07T00:09:59.279Z,102310.44
2022-08-07T00:12:31.862Z,102316.31
2022-08-07T00:14:58.771Z,102316.44
2022-08-07T00:17:25.048Z,102315.84
2022-08-07T00:20:01.288Z,102312.41
2022-08-07T00:22:35.050Z,102316.41
2022-08-07T00:25:01.956Z,102318.41
2022-08-07T00:27:29.366Z,102315.97
2022-08-07T00:30:26.746Z,102314.53
2022-08-07T00:32:54.055Z,102308.50
2022-08-07T00:35:20.260Z,102316.94
2022-08-07T00:37:49.392Z,102307.19
2022-08-07T00:40:17.013Z,102312.19
2022-08-07T00:43:03.194Z,102312.31
2022-08-07T00:45:29.375Z,102309.00
2022-08-07T00:48:09.145Z,102302.00
2022-08-07T00:50:46.465Z,102306.69
2022-08-07T00:53:17.883Z,102297.97
2022-08-07T00:56:02.383Z,102308.13
2022-08-07T00:58:29.693Z,102304.69
2022-08-07T01:00:55.904Z,102312.25
2022-08-07T01:03:54.847Z,102307.22
2022-08-07T01:06:08.283Z,102310.22
2022-08-07T01:08:34.476Z,102303.31
2022-08-07T01:11:00.807Z,102304.44
2022-08-07T01:13:55.543Z,102306.59
2022-08-07T01:16:30.574Z,102306.00
2022-08-07T01:18:57.026Z,102309.84
2022-08-07T01:21:25.871Z,102300.09
2022-08-07T01:23:52.460Z,102303.13
2022-08-07T01:26:19.526Z,102306.94
2022-08-07T01:28:48.365Z,102305.38
2022-08-07T01:31:15.454Z,102301.19
2022-08-07T01:33:55.399Z,102300.59
2022-08-07T01:36:22.589Z,102302.59
2022-08-07T01:39:00.451Z,102297.44
2022-08-07T01:41:27.002Z,102304.72
2022-08-07T01:43:53.295Z,102300.53
2022-08-07T01:46:19.486Z,102303.50
2022-08-07T01:48:47.792Z,102306.50
2022-08-07T01:52:02.765Z,102304.94
2022-08-07T01:54:00.763Z,102308.91
2022-08-07T01:56:36.269Z,102304.69
2022-08-07T01:59:05.000Z,102314.00
2022-08-07T02:02:02.015Z,102305.22
2022-08-07T02:04:17.461Z,102311.66
2022-08-07T02:06:43.786Z,102304.63
2022-08-07T02:09:53.299Z,102304.00
2022-08-07T02:12:05.041Z,102307.00
2022-08-07T02:14:40.268Z,102312.69
2022-08-07T02:17:07.444Z,102308.25
2022-08-07T02:20:05.206Z,102304.81
2022-08-07T02:22:20.091Z,102300.50
2022-08-07T02:24:46.610Z,102298.91
2022-08-07T02:27:14.770Z,102303.88
2022-08-07T02:29:48.966Z,102300.41
2022-08-07T02:32:23.450Z,102310.56
2022-08-07T02:34:53.234Z,102295.38
2022-08-07T02:37:19.441Z,102298.25
2022-08-07T02:40:02.036Z,102296.78
2022-08-07T02:42:31.834Z,102299.72
2022-08-07T02:44:58.448Z,102297.16
2022-08-07T02:47:24.763Z,102297.41
2022-08-07T02:49:57.796Z,102302.97
2022-08-07T02:52:31.141Z,102305.94
2022-08-07T02:54:58.679Z,102309.78
2022-08-07T02:57:31.037Z,102303.63
2022-08-07T03:00:05.141Z,102303.75
2022-08-07T03:02:37.233Z,102302.13
2022-08-07T03:05:08.278Z,102296.84
2022-08-07T03:07:43.222Z,102300.66
2022-08-07T03:10:20.661Z,102302.66
2022-08-07T03:12:49.746Z,102299.09
2022-08-07T03:15:30.303Z,102300.94
2022-08-07T03:18:04.339Z,102301.06
2022-08-07T03:20:31.642Z,102301.22
2022-08-07T03:22:57.825Z,102299.47
2022-08-07T03:25:24.899Z,102302.31
2022-08-07T03:28:08.873Z,102297.03
2022-08-07T03:30:36.175Z,102300.72
2022-08-07T03:33:02.374Z,102305.41
2022-08-07T03:35:43.971Z,102301.00
2022-08-07T03:38:15.655Z,102303.81
2022-08-07T03:40:44.471Z,102303.06
2022-08-07T03:43:14.564Z,102307.50
2022-08-07T03:45:43.752Z,102304.94
2022-08-07T03:48:13.954Z,102313.09
2022-08-07T03:50:43.272Z,102306.78
2022-08-07T03:54:01.883Z,102310.50
2022-08-07T03:56:08.744Z,102305.06
2022-08-07T03:59:08.476Z,102315.81
2022-08-07T04:01:26.159Z,102307.66
2022-08-07T04:03:55.082Z,102307.78
2022-08-07T04:06:36.990Z,102312.06
2022-08-07T04:09:04.751Z,102313.69
2022-08-07T04:12:26.800Z,102318.59
2022-08-07T04:14:37.677Z,102316.34
2022-08-07T04:17:03.962Z,102315.97
2022-08-07T04:19:51.036Z,102313.41
2022-08-07T04:22:17.687Z,102309.75
2022-08-07T04:24:44.113Z,102306.94
2022-08-07T04:27:20.463Z,102310.41
2022-08-07T04:30:02.314Z,102309.38
2022-08-07T04:32:34.594Z,102321.00
2022-08-07T04:35:01.356Z,102315.63
2022-08-07T04:37:30.241Z,102314.63
2022-08-07T04:40:16.425Z,102308.25
2022-08-07T04:42:45.921Z,102304.50
2022-08-07T04:45:44.411Z,102300.53
2022-08-07T04:48:09.878Z,102296.31
2022-08-07T04:50:37.003Z,102294.41
2022-08-07T04:53:03.415Z,102297.66
2022-08-07T04:58:11.157Z,102295.41
2022-08-07T04:58:34.853Z,102296.09
2022-08-07T05:01:02.067Z,102299.50
2022-08-07T05:04:00.113Z,102293.63
2022-08-07T05:06:19.699Z,102293.78
2022-08-07T05:09:01.331Z,102294.28
2022-08-07T05:11:57.203Z,102298.75
2022-08-07T05:14:56.172Z,102294.66
2022-08-07T05:17:00.671Z,102304.66
2022-08-07T05:19:32.852Z,102294.56
2022-08-07T05:22:11.254Z,102309.88
2022-08-07T05:24:40.330Z,102303.75
2022-08-07T05:27:07.019Z,102310.81
2022-08-07T05:29:50.979Z,102310.50
2022-08-07T05:32:18.485Z,102313.94
2022-08-07T05:34:46.033Z,102313.81
2022-08-07T05:37:12.873Z,102306.25
2022-08-07T05:40:17.371Z,102310.75
2022-08-07T05:42:33.292Z,102316.06
2022-08-07T05:45:14.200Z,102312.66
2022-08-07T05:48:01.777Z,102315.56
2022-08-07T05:50:27.402Z,102317.16
2022-08-07T05:52:54.033Z,102316.31
2022-08-07T05:55:21.406Z,102316.97
2022-08-07T05:57:49.125Z,102320.44
2022-08-07T06:00:17.848Z,102320.44
2022-08-07T06:02:44.201Z,102310.97
2022-08-07T06:05:11.003Z,102311.09
2022-08-07T06:08:13.170Z,102313.34
2022-08-07T06:10:28.339Z,102323.16
2022-08-07T06:12:54.582Z,102316.59
2022-08-07T06:15:20.892Z,102318.00
2022-08-07T06:17:53.759Z,102315.03
2022-08-07T06:20:31.651Z,102313.09
2022-08-07T06:23:02.445Z,102306.56
2022-08-07T06:25:54.266Z,102316.13
2022-08-07T06:28:27.766Z,102306.81
2022-08-07T06:30:54.478Z,102310.56
2022-08-07T06:33:22.540Z,102305.72
2022-08-07T06:36:12.415Z,102309.59
2022-08-07T06:38:35.384Z,102308.19
2022-08-07T06:41:02.087Z,102313.25
2022-08-07T06:43:28.366Z,102317.50
2022-08-07T06:46:05.899Z,102320.84
2022-08-07T06:48:37.855Z,102322.88
2022-08-07T06:51:09.558Z,102317.66
2022-08-07T06:55:28.553Z,102323.97
2022-08-07T06:56:21.994Z,102319.94
2022-08-07T07:00:14.348Z,102320.22
2022-08-07T07:01:44.099Z,102315.88
2022-08-07T07:04:28.290Z,102315.13
2022-08-07T07:07:01.083Z,102310.03
2022-08-07T07:09:31.250Z,102310.81
2022-08-07T07:12:07.589Z,102314.31
2022-08-07T07:14:40.318Z,102308.03
2022-08-07T07:17:06.826Z,102309.28
2022-08-07T07:19:57.204Z,102312.97
2022-08-07T07:22:36.280Z,102318.63
2022-08-07T07:26:32.401Z,102312.63
2022-08-07T07:27:58.507Z,102313.59
2022-08-07T07:30:37.898Z,102308.75
2022-08-07T07:33:04.983Z,102307.13
2022-08-07T07:35:33.517Z,102306.84
2022-08-07T07:38:02.415Z,102304.81
2022-08-07T07:40:31.160Z,102303.56
2022-08-07T07:42:57.380Z,102301.50
2022-08-07T07:46:35.631Z,102298.06
2022-08-07T07:48:11.200Z,102291.88
2022-08-07T07:50:40.239Z,102300.53
2022-08-07T07:53:20.604Z,102290.34
2022-08-07T07:55:54.846Z,102284.25
2022-08-07T07:58:24.234Z,102284.06
2022-08-07T08:00:54.218Z,102281.09
2022-08-07T08:04:10.873Z,102283.69
2022-08-07T08:06:07.639Z,102276.66
2022-08-07T08:08:39.283Z,102275.34
2022-08-07T08:11:09.295Z,102271.25
2022-08-07T08:13:54.929Z,102269.09
2022-08-07T08:16:25.189Z,102269.44
2022-08-07T08:18:51.629Z,102271.34
2022-08-07T08:21:17.816Z,102266.22
2022-08-07T08:23:44.020Z,102264.31
2022-08-07T08:26:12.363Z,102262.22
2022-08-07T08:28:43.360Z,102264.97
2022-08-07T08:31:15.749Z,102272.41
2022-08-07T08:33:43.787Z,102278.28
2022-08-07T08:36:15.942Z,102272.78
2022-08-07T08:38:42.142Z,102263.06
2022-08-07T08:41:10.843Z,102266.13
2022-08-07T08:43:42.990Z,102266.22
2022-08-07T08:46:16.699Z,102262.00
2022-08-07T08:48:46.483Z,102261.44
2022-08-07T08:51:26.055Z,102261.22
2022-08-07T08:54:03.490Z,102256.66
2022-08-07T08:56:29.732Z,102260.31
2022-08-07T08:58:55.948Z,102258.41
2022-08-07T09:01:22.217Z,102253.75
2022-08-07T09:03:55.718Z,102250.41
2022-08-07T09:06:23.050Z,102250.69
2022-08-07T09:08:50.949Z,102249.81
2022-08-07T09:11:24.247Z,102246.66
2022-08-07T09:14:03.814Z,102247.91
2022-08-07T09:16:30.761Z,102248.28
2022-08-07T09:18:58.763Z,102250.81
2022-08-07T09:21:33.858Z,102237.19
2022-08-07T09:24:31.401Z,102245.66
2022-08-07T09:26:57.514Z,102244.81
2022-08-07T09:30:06.697Z,102245.22
2022-08-07T09:32:16.957Z,102238.84
2022-08-07T09:34:44.926Z,102244.81
2022-08-07T09:37:20.336Z,102235.03
2022-08-07T09:39:59.797Z,102234.34
2022-08-07T09:42:28.371Z,102229.50
2022-08-07T09:47:27.706Z,102222.81
2022-08-07T09:47:59.943Z,102223.13
2022-08-07T09:50:30.289Z,102229.84
2022-08-07T09:52:56.545Z,102216.84
2022-08-07T09:55:29.981Z,102216.53
2022-08-07T09:58:09.179Z,102218.78
2022-08-07T10:00:37.751Z,102203.16
2022-08-07T10:03:13.376Z,102204.53
2022-08-07T10:06:01.207Z,102205.00
2022-08-07T10:08:28.963Z,102205.22
2022-08-07T10:12:00.135Z,102197.78
2022-08-07T10:14:00.881Z,102195.22
2022-08-07T10:16:27.968Z,102188.84
2022-08-07T10:18:54.153Z,102193.31
2022-08-07T10:21:50.838Z,102194.19
2022-08-07T10:24:08.415Z,102189.31
2022-08-07T10:26:35.069Z,102186.13
2022-08-07T10:29:01.252Z,102183.34
2022-08-07T10:31:28.235Z,102183.59
2022-08-07T10:34:05.769Z,102175.75
2022-08-07T10:36:39.383Z,102175.31
2022-08-07T10:39:05.800Z,102167.00
2022-08-07T10:41:53.169Z,102168.06
2022-08-07T10:44:28.355Z,102162.78
2022-08-07T10:47:04.334Z,102155.72
2022-08-07T10:49:49.147Z,102150.41
2022-08-07T10:52:17.393Z,102155.34
2022-08-07T10:54:53.251Z,102150.28
2022-08-07T10:57:34.676Z,102148.88
2022-08-07T11:00:01.053Z,102138.88
2022-08-07T11:02:34.167Z,102133.78
2022-08-07T11:05:04.260Z,102130.81
2022-08-07T11:07:58.981Z,102134.66
2022-08-07T11:10:22.999Z,102119.50
2022-08-07T11:13:02.300Z,102128.03
2022-08-07T11:15:31.950Z,102125.03
2022-08-07T11:18:03.554Z,102116.28
2022-08-07T11:20:30.728Z,102115.66
2022-08-07T11:22:56.923Z,102107.97
2022-08-07T11:25:23.343Z,102115.22
2022-08-07T11:28:01.358Z,102104.94
2022-08-07T11:30:38.998Z,102095.31
2022-08-07T11:33:08.029Z,102094.66
2022-08-07T11:35:59.559Z,102098.91
2022-08-07T11:38:28.241Z,102091.63
2022-08-07T11:40:54.629Z,102096.53
2022-08-07T11:43:29.589Z,102095.72
2022-08-07T11:46:08.539Z,102091.50
2022-08-07T11:48:35.621Z,102092.13
2022-08-07T11:51:03.801Z,102083.78
2022-08-07T11:53:30.037Z,102086.69
2022-08-07T11:56:13.927Z,102075.94
2022-08-07T11:58:49.827Z,102080.56
2022-08-07T12:01:20.192Z,102073.22
2022-08-07T12:03:48.266Z,102069.50
2022-08-07T12:06:36.241Z,102070.88
2022-08-07T12:09:01.055Z,102063.06
2022-08-07T12:11:32.424Z,102061.94
2022-08-07T12:13:58.871Z,102068.66
2022-08-07T12:16:30.508Z,102061.06
2022-08-07T12:18:57.248Z,102056.31
2022-08-07T12:21:55.846Z,102054.31
2022-08-07T12:24:36.758Z,102055.47
2022-08-07T12:26:55.777Z,102053.84
2022-08-07T12:29:38.204Z,102063.00
2022-08-07T12:32:06.362Z,102052.88
2022-08-07T12:34:38.448Z,102049.97
2022-08-07T12:37:08.180Z,102050.84
2022-08-07T12:39:50.452Z,102041.44
2022-08-07T12:42:17.351Z,102037.81
2022-08-07T12:44:53.287Z,102039.56
2022-08-07T12:47:21.845Z,102039.16
2022-08-07T12:50:04.725Z,102041.09
2022-08-07T12:52:33.972Z,102028.97
2022-08-07T12:55:05.119Z,102031.84
2022-08-07T12:57:39.045Z,102026.16
2022-08-07T13:00:21.005Z,102022.38
2022-08-07T13:02:58.783Z,102015.53
2022-08-07T13:06:02.579Z,102015.44
2022-08-07T13:08:11.899Z,102010.56
2022-08-07T13:10:51.383Z,102012.59
2022-08-07T13:13:47.426Z,102007.06
2022-08-07T13:16:04.772Z,102010.28
2022-08-07T13:18:31.002Z,102004.88
2022-08-07T13:21:00.267Z,101998.22
2022-08-07T13:24:02.011Z,101998.41
2022-08-07T13:26:16.012Z,102001.59
2022-08-07T13:28:44.511Z,102000.28
2022-08-07T13:31:13.497Z,101998.97
2022-08-07T13:34:34.553Z,101990.75
2022-08-07T13:36:26.223Z,101992.47
2022-08-07T13:38:54.364Z,101989.31
2022-08-07T13:41:20.935Z,101985.94
2022-08-07T13:43:52.560Z,101989.31
2022-08-07T13:46:26.339Z,101978.63
2022-08-07T13:48:58.646Z,101971.63
2022-08-07T13:51:28.384Z,101973.06
2022-08-07T13:54:16.643Z,101966.75
2022-08-07T13:56:51.916Z,101963.56
2022-08-07T13:59:22.219Z,101970.59
2022-08-07T14:01:51.215Z,101964.03
2022-08-07T14:04:35.724Z,101966.88
2022-08-07T14:07:03.538Z,101963.97
2022-08-07T14:10:02.888Z,101960.50
2022-08-07T14:12:16.302Z,101956.00
2022-08-07T14:14:53.716Z,101963.03
2022-08-07T14:18:12.152Z,101953.72
2022-08-07T14:20:40.067Z,101954.06
2022-08-07T14:22:52.300Z,101961.69
2022-08-07T14:25:18.600Z,101952.25
2022-08-07T14:28:12.965Z,101945.34
2022-08-07T14:30:32.600Z,101944.50
2022-08-07T14:32:59.446Z,101938.19
2022-08-07T14:38:26.780Z,101938.94
2022-08-07T14:40:57.691Z,101929.47
2022-08-07T14:43:57.265Z,101938.69
2022-08-07T14:46:10.522Z,101937.00
2022-08-07T14:48:36.750Z,101933.63
2022-08-07T14:51:03.002Z,101933.00
2022-08-07T14:54:03.605Z,101936.28
2022-08-07T14:59:03.238Z,101919.06
2022-08-07T15:04:28.622Z,101928.84
2022-08-07T15:06:55.313Z,101926.94
2022-08-07T15:09:57.782Z,101931.28
2022-08-07T15:12:07.764Z,101922.84
2022-08-07T15:14:35.926Z,101920.66
2022-08-07T15:17:22.500Z,101919.56
2022-08-07T15:20:32.368Z,101922.22
2022-08-07T15:22:38.025Z,101918.31
2022-08-07T15:25:17.368Z,101918.31
2022-08-07T15:28:30.823Z,101919.41
2022-08-07T15:30:31.971Z,101911.88
2022-08-07T15:36:02.371Z,101902.69
2022-08-07T15:38:33.061Z,101909.34
2022-08-07T15:41:24.356Z,101903.47
2022-08-07T15:44:03.199Z,101903.19
2022-08-07T15:49:15.650Z,101897.50
2022-08-07T15:54:24.106Z,101899.63
2022-08-07T15:56:52.536Z,101898.44
2022-08-07T15:59:18.764Z,101898.81
2022-08-07T16:01:44.939Z,101896.53
2022-08-07T16:04:28.324Z,101891.66
2022-08-07T16:06:58.255Z,101886.84
2022-08-07T16:09:41.946Z,101893.63
2022-08-07T16:12:12.154Z,101888.78
2022-08-07T16:14:38.617Z,101888.91
2022-08-07T16:17:15.103Z,101887.94
2022-08-07T16:19:58.680Z,101883.94
2022-08-07T16:22:33.354Z,101883.47
2022-08-07T16:25:02.422Z,101872.94
2022-08-07T16:27:40.448Z,101876.44
2022-08-07T16:30:31.043Z,101884.44
2022-08-07T16:32:54.671Z,101879.94
2022-08-07T16:35:52.068Z,101877.56
2022-08-07T16:38:11.290Z,101873.44
2022-08-07T16:40:51.185Z,101876.84
2022-08-07T16:43:23.912Z,101880.25
2022-08-07T16:47:02.951Z,101874.59
2022-08-07T16:58:00.837Z,101880.44
2022-08-07T17:00:14.993Z,101882.59
2022-08-07T17:02:51.174Z,101876.91
2022-08-07T17:06:01.759Z,101882.81
2022-08-07T17:08:09.127Z,101876.69
2022-08-07T17:10:35.627Z,101872.72
2022-08-07T17:13:03.475Z,101871.66
2022-08-07T17:15:44.563Z,101878.91
2022-08-07T17:18:16.054Z,101879.34
2022-08-07T17:20:42.504Z,101880.31
2022-08-07T17:23:13.176Z,101878.94
2022-08-07T17:25:47.311Z,101880.69
2022-08-07T17:28:19.457Z,101875.47
2022-08-07T17:30:57.562Z,101878.94
2022-08-07T17:34:10.229Z,101889.19
2022-08-07T17:36:13.743Z,101889.66
2022-08-07T17:38:47.161Z,101883.47
2022-08-07T17:42:04.182Z,101885.50
2022-08-07T17:44:05.836Z,101887.34
2022-08-07T17:46:34.803Z,101880.53
2022-08-07T17:49:01.051Z,101891.69
2022-08-07T17:51:49.547Z,101887.88
2022-08-07T17:54:29.522Z,101886.50
2022-08-07T17:57:18.677Z,101892.78
2022-08-07T17:59:45.560Z,101883.53
2022-08-07T18:02:16.909Z,101887.00
2022-08-07T18:04:49.739Z,101879.00
2022-08-07T18:07:23.745Z,101888.88
2022-08-07T18:10:06.907Z,101884.50
2022-08-07T18:12:34.072Z,101893.53
2022-08-07T18:15:00.554Z,101890.38
2022-08-07T18:18:33.068Z,101893.22
2022-08-07T18:21:10.406Z,101893.09
2022-08-07T18:22:59.231Z,101893.56
2022-08-07T18:25:40.170Z,101895.72
2022-08-07T18:28:08.719Z,101897.03
2022-08-07T18:30:37.598Z,101897.25
2022-08-07T18:33:10.723Z,101897.06
2022-08-07T18:35:51.831Z,101897.50
2022-08-07T18:38:55.245Z,101906.44
2022-08-07T18:41:10.231Z,101903.25
2022-08-07T18:43:43.463Z,101912.84
2022-08-07T18:46:25.157Z,101909.44
2022-08-07T18:50:30.515Z,101909.88
2022-08-07T18:52:34.673Z,101911.97
2022-08-07T18:54:30.583Z,101909.63
2022-08-07T18:56:58.413Z,101913.63
2022-08-07T18:59:46.861Z,101915.31
2022-08-07T19:02:36.451Z,101916.97
2022-08-07T19:05:14.829Z,101925.84
2022-08-07T19:07:51.664Z,101918.19
2022-08-07T19:10:23.828Z,101921.53
2022-08-07T19:12:59.549Z,101921.06
2022-08-07T19:16:04.241Z,101921.41
2022-08-07T19:18:34.685Z,101931.09
2022-08-07T19:21:09.613Z,101922.75
2022-08-07T19:23:59.081Z,101927.13
2022-08-07T19:26:29.250Z,101933.22
2022-08-07T19:30:56.548Z,101926.16
2022-08-07T19:32:07.779Z,101924.78
2022-08-07T19:34:33.698Z,101926.38
2022-08-07T19:37:09.822Z,101930.13
2022-08-07T19:39:57.782Z,101937.88
2022-08-07T19:42:30.359Z,101940.09
2022-08-07T19:44:56.838Z,101938.34
2022-08-07T19:47:27.259Z,101940.38
2022-08-07T19:49:56.357Z,101943.25
2022-08-07T19:52:24.882Z,101944.41
2022-08-07T19:54:56.497Z,101951.94
2022-08-07T19:58:02.927Z,101952.88
2022-08-07T20:00:10.148Z,101951.28
2022-08-07T20:02:38.923Z,101963.28
2022-08-07T20:05:07.832Z,101961.44
2022-08-07T20:07:45.854Z,101966.03
2022-08-07T20:10:35.616Z,101969.91
2022-08-07T20:13:00.481Z,101965.56
2022-08-07T20:15:33.110Z,101970.13
2022-08-07T20:18:03.517Z,101970.00
2022-08-07T20:20:30.534Z,101969.91
2022-08-07T20:22:56.764Z,101972.53
2022-08-07T20:25:23.320Z,101976.22
2022-08-07T20:27:54.283Z,101970.41
2022-08-07T20:30:24.925Z,101978.56
2022-08-07T20:32:51.720Z,101970.22
2022-08-07T20:35:22.003Z,101977.28
2022-08-07T20:37:59.261Z,101976.16
2022-08-07T20:40:32.787Z,101972.44
2022-08-07T20:43:00.398Z,101980.41
2022-08-07T20:46:24.221Z,101975.63
2022-08-07T20:48:29.797Z,101976.34
2022-08-07T20:50:57.891Z,101982.59
2022-08-07T20:53:25.966Z,101982.47
2022-08-07T20:56:10.311Z,101980.47
2022-08-07T20:58:36.532Z,101982.03
2022-08-07T21:01:04.685Z,101982.72
2022-08-07T21:03:31.313Z,101984.50
2022-08-07T21:06:00.824Z,101986.25
2022-08-07T21:08:37.569Z,101978.75
2022-08-07T21:11:05.227Z,101978.41
2022-08-07T21:13:56.933Z,101981.03
2022-08-07T21:16:23.020Z,101979.00
2022-08-07T21:18:50.728Z,101986.06
2022-08-07T21:21:19.608Z,101990.38
2022-08-07T21:23:53.324Z,101985.44
2022-08-07T21:26:19.509Z,101989.75
2022-08-07T21:28:50.919Z,101986.81
2022-08-07T21:31:17.477Z,101992.84
2022-08-07T21:34:03.653Z,101992.72
2022-08-07T21:36:33.086Z,101988.63
2022-08-07T21:38:59.374Z,101993.72
2022-08-07T21:41:26.198Z,101981.56
2022-08-07T21:43:56.757Z,101986.72
2022-08-07T21:46:25.273Z,101996.69
2022-08-07T21:48:58.205Z,101991.91
2022-08-07T21:51:25.008Z,101991.38
2022-08-07T21:53:52.985Z,101990.88
2022-08-07T21:56:40.302Z,101992.44
2022-08-07T21:59:06.015Z,101994.84
2022-08-07T22:02:07.217Z,101990.06
2022-08-07T22:04:20.226Z,101992.44
2022-08-07T22:06:49.584Z,101989.38
2022-08-07T22:09:16.094Z,101991.75
2022-08-07T22:11:52.989Z,101992.31
2022-08-07T22:14:35.116Z,101996.38
2022-08-07T22:17:02.853Z,101999.63
2022-08-07T22:19:30.521Z,101997.44
2022-08-07T22:22:01.865Z,101997.94
2022-08-07T22:24:32.865Z,101994.84
2022-08-07T22:26:59.495Z,101995.16
2022-08-07T22:29:33.911Z,101994.97
2022-08-07T22:32:12.771Z,101997.34
2022-08-07T22:34:53.784Z,102002.31
2022-08-07T22:37:20.044Z,102001.97
2022-08-07T22:39:53.432Z,101998.72
2022-08-07T22:42:53.915Z,102003.97
2022-08-07T22:45:10.956Z,102004.31
2022-08-07T22:47:52.641Z,102003.09
2022-08-07T22:50:20.650Z,102006.34
2022-08-07T22:52:55.155Z,102003.09
2022-08-07T22:55:22.824Z,102013.50
2022-08-07T22:57:49.859Z,102007.66
2022-08-07T23:00:16.205Z,102007.31
2022-08-07T23:02:42.467Z,102017.72
2022-08-07T23:06:09.037Z,102017.19
2022-08-07T23:07:56.780Z,102008.63
2022-08-07T23:10:38.128Z,102012.56
2022-08-07T23:13:07.409Z,102007.59
2022-08-07T23:16:07.069Z,102013.34
2022-08-07T23:18:20.259Z,102017.44
2022-08-07T23:20:53.162Z,102021.53
2022-08-07T23:24:04.470Z,102028.50
2022-08-07T23:26:06.115Z,102023.50
2022-08-07T23:28:32.284Z,102024.50
2022-08-07T23:31:07.154Z,102020.22
2022-08-07T23:34:33.935Z,102016.94
2022-08-07T23:36:28.753Z,102029.06
2022-08-07T23:38:55.466Z,102021.34
2022-08-07T23:41:22.495Z,102020.66
2022-08-07T23:43:59.344Z,102022.00
2022-08-07T23:46:27.286Z,102022.31
2022-08-07T23:48:53.664Z,102021.78
2022-08-07T23:52:58.788Z,102014.94
2022-08-07T23:54:11.716Z,102022.41
2022-08-07T23:56:53.791Z,102007.22
